Time;durP1;ratioP1;P1;durP2;ratioP2;P2;SDS_P1;SDS_P2;PMS_P1;PMS_P2;Temp;Humidity;BMP_temperature;BMP_pressure;BME280_temperature;BME280_humidity;BME280_pressure;Samples;Min_cycle;Max_cycle;Signal;HPM_P1;HPM_P2
2021/10/11 00:00:41;;;;;;;13.68;2.85;;;11.70;99.90;;;;;;5046829;28;20048;-70
2021/10/11 00:03:07;;;;;;;9.00;2.60;;;11.70;99.90;;;;;;5049836;28;20044;-70
2021/10/11 00:05:33;;;;;;;11.55;3.17;;;11.60;99.90;;;;;;5051032;28;20514;-70
2021/10/11 00:07:59;;;;;;;8.82;2.53;;;11.50;99.90;;;;;;5033749;28;20052;-70
2021/10/11 00:10:25;;;;;;;13.50;3.22;;;11.50;99.90;;;;;;5049367;28;20520;-71
2021/10/11 00:12:53;;;;;;;17.45;3.92;;;11.40;99.90;;;;;;5048977;28;20048;-70
2021/10/11 00:15:21;;;;;;;14.93;3.67;;;11.40;99.90;;;;;;5050141;28;20658;-70
2021/10/11 00:17:47;;;;;;;13.88;3.17;;;11.30;99.90;;;;;;5050660;28;20040;-70
2021/10/11 00:20:14;;;;;;;14.55;3.65;;;11.30;99.90;;;;;;5047604;28;20039;-70
2021/10/11 00:22:40;;;;;;;12.43;3.63;;;11.20;99.90;;;;;;5049360;28;20036;-70
2021/10/11 00:25:07;;;;;;;10.73;2.95;;;11.20;99.90;;;;;;5048518;28;20067;-70
2021/10/11 00:27:34;;;;;;;11.02;2.90;;;11.10;99.90;;;;;;5050281;28;20036;-70
2021/10/11 00:30:05;;;;;;;13.82;3.28;;;11.10;99.90;;;;;;5050307;28;20498;-70
2021/10/11 00:32:34;;;;;;;9.60;3.30;;;11.10;99.90;;;;;;5049604;28;20384;-70
2021/10/11 00:35:00;;;;;;;10.38;3.67;;;11.00;99.90;;;;;;5050550;28;20048;-70
2021/10/11 00:37:25;;;;;;;17.25;3.28;;;11.00;99.90;;;;;;5033851;28;20050;-70
2021/10/11 00:39:51;;;;;;;12.27;3.75;;;11.00;99.90;;;;;;5050730;28;20044;-70
2021/10/11 00:42:17;;;;;;;10.20;2.80;;;11.00;99.90;;;;;;5034256;28;20457;-70
2021/10/11 00:44:43;;;;;;;8.50;3.10;;;11.00;99.90;;;;;;5033892;28;20398;-70
2021/10/11 00:47:09;;;;;;;15.07;4.20;;;11.00;99.90;;;;;;5030670;28;20120;-70
2021/10/11 00:49:34;;;;;;;11.52;3.50;;;11.00;99.90;;;;;;5050943;28;20461;-70
2021/10/11 00:52:00;;;;;;;16.13;3.90;;;11.00;99.90;;;;;;5049004;28;20090;-70
2021/10/11 00:54:27;;;;;;;11.45;3.53;;;11.00;99.90;;;;;;5032141;28;20045;-70
2021/10/11 00:56:52;;;;;;;12.48;3.67;;;11.00;99.90;;;;;;5049700;28;20131;-70
2021/10/11 00:59:18;;;;;;;10.45;3.13;;;11.00;99.90;;;;;;5031605;28;20120;-70
2021/10/11 01:01:44;;;;;;;13.68;3.67;;;11.00;99.90;;;;;;5050245;28;20045;-70
2021/10/11 01:04:10;;;;;;;12.15;3.53;;;10.90;99.90;;;;;;5048852;28;20068;-70
2021/10/11 01:06:37;;;;;;;16.40;3.80;;;10.90;99.90;;;;;;5049712;28;20109;-70
2021/10/11 01:09:04;;;;;;;15.75;3.95;;;10.90;99.90;;;;;;5032539;28;20056;-70
2021/10/11 01:11:30;;;;;;;11.15;3.17;;;10.80;99.90;;;;;;5032657;28;20059;-71
2021/10/11 01:13:56;;;;;;;10.43;3.55;;;10.80;99.90;;;;;;5032912;28;20483;-70
2021/10/11 01:16:22;;;;;;;9.95;2.80;;;10.80;99.90;;;;;;5031908;28;20124;-70
2021/10/11 01:18:48;;;;;;;15.23;3.58;;;10.80;99.90;;;;;;5048391;28;20510;-70
2021/10/11 01:21:13;;;;;;;11.30;3.22;;;10.70;99.90;;;;;;5045015;28;20458;-70
2021/10/11 01:23:39;;;;;;;9.75;3.70;;;10.70;99.90;;;;;;5031265;28;20055;-70
2021/10/11 01:26:05;;;;;;;10.98;3.08;;;10.70;99.90;;;;;;5032178;28;20048;-70
2021/10/11 01:28:34;;;;;;;9.73;3.20;;;10.80;99.90;;;;;;5048642;28;20036;-70
2021/10/11 01:31:00;;;;;;;15.63;3.75;;;10.70;99.90;;;;;;5049327;28;20059;-70
2021/10/11 01:33:25;;;;;;;12.00;3.60;;;10.70;99.90;;;;;;5031853;28;20044;-70
2021/10/11 01:35:51;;;;;;;9.88;3.15;;;10.70;99.90;;;;;;5049300;28;20205;-70
2021/10/11 01:38:17;;;;;;;13.77;3.95;;;10.70;99.90;;;;;;5030718;28;20036;-70
2021/10/11 01:40:46;;;;;;;10.15;3.25;;;10.70;99.90;;;;;;5028404;28;20041;-70
2021/10/11 01:43:11;;;;;;;13.23;3.47;;;10.60;99.90;;;;;;5029411;28;20072;-70
2021/10/11 01:45:39;;;;;;;12.63;3.55;;;10.60;99.90;;;;;;5032294;28;20056;-70
2021/10/11 01:48:08;;;;;;;10.15;3.25;;;10.60;99.90;;;;;;5047546;28;20105;-70
2021/10/11 01:50:34;;;;;;;10.57;3.35;;;10.60;99.90;;;;;;5048812;28;20040;-70
2021/10/11 01:53:01;;;;;;;9.77;3.17;;;10.50;99.90;;;;;;5048079;28;20041;-70
2021/10/11 01:55:26;;;;;;;11.77;2.97;;;10.50;99.90;;;;;;5061867;28;20335;-70
2021/10/11 01:57:52;;;;;;;17.85;3.90;;;10.50;99.90;;;;;;5047547;28;20496;-70
2021/10/11 02:00:18;;;;;;;17.02;4.25;;;10.50;99.90;;;;;;5047865;28;20048;-70
2021/10/11 02:02:44;;;;;;;10.43;3.88;;;10.50;99.90;;;;;;5045354;28;20040;-70
2021/10/11 02:05:10;;;;;;;12.93;3.78;;;10.50;99.90;;;;;;5048035;28;20063;-70
2021/10/11 02:07:36;;;;;;;13.05;3.35;;;10.50;99.90;;;;;;5031773;28;20052;-70
2021/10/11 02:10:06;;;;;;;9.68;2.75;;;10.50;99.90;;;;;;5049078;28;20049;-70
2021/10/11 02:12:34;;;;;;;11.13;2.95;;;10.50;99.90;;;;;;5031634;28;20129;-70
2021/10/11 02:15:01;;;;;;;11.18;3.00;;;10.40;99.90;;;;;;5032343;28;20044;-70
2021/10/11 02:17:36;;;;;;;10.30;3.08;;;10.40;99.90;;;;;;5034249;28;20055;-70
2021/10/11 02:20:06;;;;;;;13.32;3.30;;;10.30;99.90;;;;;;5033106;28;20052;-70
2021/10/11 02:22:34;;;;;;;10.02;2.83;;;10.20;99.90;;;;;;5022919;28;20076;-70
2021/10/11 02:25:00;;;;;;;9.02;3.00;;;10.20;99.90;;;;;;5035342;28;20057;-70
2021/10/11 02:27:26;;;;;;;10.82;3.08;;;10.10;99.90;;;;;;5048566;28;20048;-70
2021/10/11 02:29:52;;;;;;;14.85;3.40;;;10.10;99.90;;;;;;5049444;28;20499;-70
2021/10/11 02:32:18;;;;;;;13.10;2.90;;;10.10;99.90;;;;;;5048961;28;20044;-70
2021/10/11 02:34:43;;;;;;;12.52;2.80;;;10.00;99.90;;;;;;5049810;28;20051;-70
2021/10/11 02:37:16;;;;;;;13.35;3.13;;;10.00;99.90;;;;;;5049533;28;20041;-70
2021/10/11 02:39:42;;;;;;;12.07;3.67;;;9.90;99.90;;;;;;5033109;28;20141;-70
2021/10/11 02:42:08;;;;;;;10.77;2.88;;;9.90;99.90;;;;;;5047802;28;20129;-70
2021/10/11 02:44:34;;;;;;;8.45;2.53;;;9.80;99.90;;;;;;5048823;28;20037;-70
2021/10/11 02:47:00;;;;;;;7.60;2.55;;;9.80;99.90;;;;;;5047833;28;20080;-70
2021/10/11 02:49:25;;;;;;;9.77;2.88;;;9.70;99.90;;;;;;5051679;28;20053;-70
2021/10/11 02:51:51;;;;;;;7.57;2.53;;;9.70;99.90;;;;;;5036347;28;20145;-70
2021/10/11 02:54:17;;;;;;;8.43;2.60;;;9.60;99.90;;;;;;5052050;28;20036;-70
2021/10/11 02:56:44;;;;;;;10.88;2.67;;;9.60;99.90;;;;;;5053607;28;20051;-70
2021/10/11 02:59:10;;;;;;;13.52;2.75;;;9.60;99.90;;;;;;5057113;28;20036;-70
2021/10/11 03:01:36;;;;;;;8.05;2.45;;;9.60;99.90;;;;;;5058365;28;20047;-70
2021/10/11 03:04:02;;;;;;;10.65;2.20;;;9.50;99.90;;;;;;5035363;28;20044;-70
2021/10/11 03:06:28;;;;;;;14.05;2.90;;;9.50;99.90;;;;;;5049609;28;20094;-70
2021/10/11 03:08:54;;;;;;;13.52;3.00;;;9.50;99.90;;;;;;5051796;28;20053;-70
2021/10/11 03:11:20;;;;;;;14.63;2.80;;;9.50;99.90;;;;;;5034657;28;20047;-70
2021/10/11 03:13:45;;;;;;;11.18;2.90;;;9.40;99.90;;;;;;5035216;28;20040;-70
2021/10/11 03:16:11;;;;;;;12.57;3.20;;;9.40;99.90;;;;;;5051321;28;20048;-70
2021/10/11 03:18:38;;;;;;;12.80;3.20;;;9.40;99.90;;;;;;5034173;28;20037;-70
2021/10/11 03:21:04;;;;;;;11.68;2.45;;;9.40;99.90;;;;;;5052211;28;20056;-70
2021/10/11 03:23:30;;;;;;;11.77;3.10;;;9.40;99.90;;;;;;5033570;28;20062;-70
2021/10/11 03:25:56;;;;;;;13.25;2.60;;;9.30;99.90;;;;;;5033233;28;20534;-70
2021/10/11 03:28:22;;;;;;;8.85;2.42;;;9.30;99.90;;;;;;5034523;28;20545;-70
2021/10/11 03:30:47;;;;;;;11.05;2.90;;;9.30;99.90;;;;;;5049161;28;20073;-70
2021/10/11 03:33:13;;;;;;;9.82;2.55;;;9.30;99.90;;;;;;5034029;28;20047;-70
2021/10/11 03:35:39;;;;;;;11.20;2.63;;;9.30;99.90;;;;;;5034603;28;20414;-70
2021/10/11 03:38:05;;;;;;;15.65;3.05;;;9.40;99.90;;;;;;5051534;28;20072;-70
2021/10/11 03:40:34;;;;;;;8.40;2.40;;;9.40;99.90;;;;;;5050694;28;20044;-70
2021/10/11 03:42:59;;;;;;;10.88;2.30;;;9.50;99.90;;;;;;5051928;28;20037;-70
2021/10/11 03:45:25;;;;;;;12.30;3.00;;;9.40;99.90;;;;;;5034141;28;20044;-70
2021/10/11 03:47:51;;;;;;;10.95;2.67;;;9.50;99.90;;;;;;5050106;28;20825;-70
2021/10/11 03:50:17;;;;;;;15.98;3.42;;;9.50;99.90;;;;;;5033933;28;20048;-70
2021/10/11 03:52:43;;;;;;;10.50;3.05;;;9.60;99.90;;;;;;5034239;28;20667;-70
2021/10/11 03:55:08;;;;;;;11.95;2.95;;;9.60;99.90;;;;;;5050383;28;20048;-76
2021/10/11 03:57:34;;;;;;;15.05;3.38;;;9.60;99.90;;;;;;5033774;28;20553;-76
2021/10/11 04:00:00;;;;;;;10.68;2.67;;;9.70;99.90;;;;;;5048317;28;20156;-70
2021/10/11 04:02:27;;;;;;;8.93;2.38;;;9.70;99.90;;;;;;5033139;28;20062;-70
2021/10/11 04:04:52;;;;;;;10.32;2.70;;;9.70;99.90;;;;;;5036822;28;20139;-70
2021/10/11 04:07:19;;;;;;;10.05;3.10;;;9.70;99.90;;;;;;5052825;28;20132;-70
2021/10/11 04:09:46;;;;;;;11.13;3.15;;;9.70;99.90;;;;;;5058572;28;20085;-70
2021/10/11 04:12:21;;;;;;;12.50;2.97;;;9.70;99.90;;;;;;5032646;28;20045;-70
2021/10/11 04:14:48;;;;;;;8.93;2.10;;;9.70;99.90;;;;;;5033265;28;20045;-70
2021/10/11 04:17:14;;;;;;;7.85;2.55;;;9.80;99.90;;;;;;5041763;28;20052;-70
2021/10/11 04:19:40;;;;;;;14.52;2.72;;;9.80;99.90;;;;;;5052200;28;20517;-70
2021/10/11 04:22:06;;;;;;;11.15;2.83;;;9.80;99.90;;;;;;5052159;28;20129;-70
2021/10/11 04:24:32;;;;;;;14.13;2.63;;;9.80;99.90;;;;;;5035226;28;20044;-76
2021/10/11 04:26:58;;;;;;;9.55;2.40;;;9.80;99.90;;;;;;5052885;28;20047;-75
2021/10/11 04:29:24;;;;;;;12.88;2.92;;;9.80;99.90;;;;;;5035824;28;20104;-76
2021/10/11 04:31:50;;;;;;;9.70;2.40;;;9.70;99.90;;;;;;5051809;28;20056;-76
2021/10/11 04:34:16;;;;;;;12.70;2.35;;;9.70;99.90;;;;;;5034939;28;20048;-70
2021/10/11 04:36:41;;;;;;;14.98;2.55;;;9.70;99.90;;;;;;5051819;28;20049;-70
2021/10/11 04:39:07;;;;;;;13.07;3.00;;;9.70;99.90;;;;;;5052103;28;20064;-70
2021/10/11 04:41:33;;;;;;;13.43;2.90;;;9.70;99.90;;;;;;5034643;28;20044;-70
2021/10/11 04:43:58;;;;;;;7.18;1.60;;;9.70;99.90;;;;;;5035852;28;20105;-70
2021/10/11 04:46:24;;;;;;;8.60;2.33;;;9.70;99.90;;;;;;5034735;28;20483;-70
2021/10/11 04:48:50;;;;;;;12.57;2.97;;;9.70;99.90;;;;;;5023613;28;20063;-70
2021/10/11 04:51:16;;;;;;;14.15;2.70;;;9.60;99.90;;;;;;5050958;28;20087;-70
2021/10/11 04:53:42;;;;;;;12.77;2.45;;;9.60;99.90;;;;;;5050494;28;20036;-69
2021/10/11 04:56:07;;;;;;;11.98;2.70;;;9.70;99.90;;;;;;5050948;28;20630;-69
2021/10/11 04:58:33;;;;;;;13.23;2.30;;;9.60;99.90;;;;;;5051077;28;20066;-70
2021/10/11 05:00:59;;;;;;;12.25;2.78;;;9.60;99.90;;;;;;5043931;28;20458;-69
2021/10/11 05:03:25;;;;;;;14.98;2.88;;;9.60;99.90;;;;;;5031598;28;20059;-69
2021/10/11 05:05:51;;;;;;;12.68;2.80;;;9.60;99.90;;;;;;5048055;28;20045;-70
2021/10/11 05:08:17;;;;;;;12.90;2.92;;;9.60;99.90;;;;;;5031226;28;20045;-70
2021/10/11 05:10:42;;;;;;;14.30;3.15;;;9.60;99.90;;;;;;5065935;28;20076;-70
2021/10/11 05:13:08;;;;;;;15.80;3.40;;;9.60;99.90;;;;;;5051112;28;20041;-70
2021/10/11 05:15:34;;;;;;;23.33;3.15;;;9.50;99.90;;;;;;5050476;28;20075;-70
2021/10/11 05:17:59;;;;;;;11.82;3.03;;;9.50;99.90;;;;;;5046210;28;20072;-70
2021/10/11 05:20:26;;;;;;;11.88;2.75;;;9.50;99.90;;;;;;5046881;28;20427;-69
2021/10/11 05:22:52;;;;;;;10.88;2.90;;;9.50;99.90;;;;;;5047065;28;20044;-69
2021/10/11 05:25:18;;;;;;;11.65;2.85;;;9.50;99.90;;;;;;5046290;28;20564;-70
2021/10/11 05:27:44;;;;;;;14.77;3.45;;;9.40;99.90;;;;;;5049745;28;20044;-70
2021/10/11 05:30:10;;;;;;;12.73;2.85;;;9.50;99.90;;;;;;5048411;28;20083;-70
2021/10/11 05:32:36;;;;;;;19.38;3.53;;;9.50;99.90;;;;;;5063191;28;20143;-70
2021/10/11 05:35:06;;;;;;;13.57;2.90;;;9.40;99.90;;;;;;5047589;28;20052;-70
2021/10/11 05:37:36;;;;;;;14.07;3.53;;;9.40;99.90;;;;;;5049177;28;20041;-70
2021/10/11 05:40:04;;;;;;;9.45;2.95;;;9.40;99.90;;;;;;5049132;28;20048;-70
2021/10/11 05:42:30;;;;;;;11.07;2.70;;;9.40;99.90;;;;;;5032188;28;20047;-70
2021/10/11 05:44:55;;;;;;;13.70;2.75;;;9.40;99.90;;;;;;5050552;28;20052;-70
2021/10/11 05:47:21;;;;;;;12.65;2.70;;;9.40;99.90;;;;;;5029675;28;20174;-70
2021/10/11 05:49:47;;;;;;;12.82;2.75;;;9.40;99.90;;;;;;5029059;28;20380;-70
2021/10/11 05:52:13;;;;;;;8.65;2.13;;;9.40;99.90;;;;;;5033181;28;20412;-70
2021/10/11 05:54:38;;;;;;;14.60;2.92;;;9.30;99.90;;;;;;5030899;28;20666;-70
2021/10/11 05:57:05;;;;;;;11.80;2.83;;;9.30;99.90;;;;;;5044358;28;20766;-71
2021/10/11 05:59:30;;;;;;;11.98;2.97;;;9.30;99.90;;;;;;5031974;28;20170;-70
2021/10/11 06:01:56;;;;;;;17.02;2.95;;;9.30;99.90;;;;;;5047067;28;20143;-70
2021/10/11 06:04:22;;;;;;;17.52;2.75;;;9.30;99.90;;;;;;5046955;28;20135;-70
2021/10/11 06:06:48;;;;;;;11.10;2.38;;;9.20;99.90;;;;;;5030153;28;20127;-70
2021/10/11 06:09:15;;;;;;;10.05;3.10;;;9.20;99.90;;;;;;5028650;28;20087;-70
2021/10/11 06:11:41;;;;;;;9.27;2.00;;;9.20;99.90;;;;;;5031054;28;20032;-70
2021/10/11 06:14:07;;;;;;;15.93;3.15;;;9.20;99.90;;;;;;5046608;28;20052;-70
2021/10/11 06:16:33;;;;;;;11.95;2.85;;;9.20;99.90;;;;;;5032153;28;20060;-70
2021/10/11 06:18:59;;;;;;;15.07;3.38;;;9.10;99.90;;;;;;5047927;28;20466;-70
2021/10/11 06:21:25;;;;;;;14.70;3.15;;;9.10;99.90;;;;;;5045295;28;20044;-70
2021/10/11 06:23:52;;;;;;;15.70;3.58;;;9.10;99.90;;;;;;5034873;28;20050;-70
2021/10/11 06:26:18;;;;;;;12.55;2.85;;;9.10;99.90;;;;;;5052940;28;20040;-70
2021/10/11 06:28:43;;;;;;;15.02;2.95;;;9.10;99.90;;;;;;5036704;28;20063;-70
2021/10/11 06:31:09;;;;;;;11.90;3.10;;;9.10;99.90;;;;;;5053727;28;20071;-70
2021/10/11 06:33:35;;;;;;;13.82;2.90;;;9.10;99.90;;;;;;5051800;28;20076;-70
2021/10/11 06:36:04;;;;;;;15.57;2.88;;;9.10;99.90;;;;;;5037179;28;20059;-70
2021/10/11 06:38:30;;;;;;;13.35;3.20;;;9.10;99.90;;;;;;5053219;28;20044;-70
2021/10/11 06:40:56;;;;;;;15.45;3.42;;;9.10;99.90;;;;;;5033057;28;20048;-70
2021/10/11 06:43:22;;;;;;;13.95;2.72;;;9.10;99.90;;;;;;5035573;28;20048;-70
2021/10/11 06:45:48;;;;;;;11.57;2.90;;;9.10;99.90;;;;;;5052827;28;20036;-70
2021/10/11 06:48:17;;;;;;;12.75;3.00;;;9.10;99.90;;;;;;5033604;28;20491;-70
2021/10/11 06:50:43;;;;;;;16.87;3.40;;;9.20;99.90;;;;;;5052014;28;20068;-70
2021/10/11 06:53:09;;;;;;;13.55;3.45;;;9.20;99.90;;;;;;5050642;28;20048;-70
2021/10/11 06:55:35;;;;;;;15.07;3.55;;;9.20;99.90;;;;;;5034472;28;20044;-70
2021/10/11 06:58:01;;;;;;;14.25;3.00;;;9.30;99.90;;;;;;5036179;28;20044;-70
2021/10/11 07:00:26;;;;;;;14.77;3.05;;;9.40;99.90;;;;;;5051515;28;20051;-69
2021/10/11 07:02:52;;;;;;;13.32;3.08;;;9.40;99.90;;;;;;5019147;28;20052;-70
2021/10/11 07:05:18;;;;;;;14.50;3.80;;;9.50;99.90;;;;;;5051419;28;20840;-70
2021/10/11 07:07:46;;;;;;;13.60;3.55;;;9.50;99.90;;;;;;5035108;28;20616;-71
2021/10/11 07:10:11;;;;;;;16.05;3.85;;;9.60;99.90;;;;;;5034902;28;20104;-71
2021/10/11 07:12:37;;;;;;;10.30;2.78;;;9.60;99.90;;;;;;5051591;28;20986;-70
2021/10/11 07:15:04;;;;;;;17.30;4.32;;;9.70;99.90;;;;;;5051851;28;20037;-71
2021/10/11 07:17:30;;;;;;;12.80;3.60;;;9.70;99.90;;;;;;5052561;28;20113;-71
2021/10/11 07:19:55;;;;;;;18.23;3.70;;;9.80;99.90;;;;;;5046195;28;20088;-71
2021/10/11 07:22:21;;;;;;;15.60;3.67;;;9.80;99.90;;;;;;5048415;28;20040;-71
2021/10/11 07:24:47;;;;;;;22.33;4.53;;;9.90;99.90;;;;;;5034593;28;20040;-71
2021/10/11 07:27:13;;;;;;;15.90;3.80;;;9.90;99.90;;;;;;5057563;28;20047;-71
2021/10/11 07:29:39;;;;;;;17.83;4.05;;;10.00;99.90;;;;;;5050952;28;20507;-71
2021/10/11 07:32:06;;;;;;;14.38;3.78;;;10.00;99.90;;;;;;5048841;28;20048;-71
2021/10/11 07:34:32;;;;;;;15.30;3.22;;;10.00;99.90;;;;;;5020074;28;20029;-71
2021/10/11 07:36:59;;;;;;;13.85;3.33;;;10.10;99.90;;;;;;5051611;28;20101;-71
2021/10/11 07:39:25;;;;;;;17.85;4.10;;;10.10;99.90;;;;;;5008013;28;20045;-71
2021/10/11 07:41:51;;;;;;;16.42;3.30;;;10.20;99.90;;;;;;5038479;28;20042;-71
2021/10/11 07:44:17;;;;;;;14.73;3.45;;;10.30;99.90;;;;;;5036623;28;20132;-71
2021/10/11 07:46:43;;;;;;;16.58;3.35;;;10.30;99.90;;;;;;5034518;28;20387;-71
2021/10/11 07:49:10;;;;;;;15.05;3.53;;;10.40;99.90;;;;;;5052639;28;20109;-71
2021/10/11 07:51:36;;;;;;;13.55;3.40;;;10.50;99.90;;;;;;5035760;28;20470;-71
2021/10/11 07:54:03;;;;;;;24.58;3.90;;;10.60;99.90;;;;;;5053584;28;20047;-71
2021/10/11 07:56:29;;;;;;;17.88;4.10;;;10.60;99.90;;;;;;5052303;28;20095;-71
2021/10/11 07:58:55;;;;;;;13.13;2.90;;;10.70;99.90;;;;;;5034098;28;20702;-71
2021/10/11 08:01:20;;;;;;;16.50;3.00;;;10.70;99.90;;;;;;5051514;28;20040;-71
2021/10/11 08:03:46;;;;;;;17.27;3.42;;;10.80;99.90;;;;;;5050161;28;20067;-71
2021/10/11 08:06:12;;;;;;;14.73;3.72;;;10.80;99.90;;;;;;5050027;28;20053;-71
2021/10/11 08:08:37;;;;;;;12.18;2.88;;;10.80;99.90;;;;;;5051279;28;20037;-71
2021/10/11 08:11:03;;;;;;;9.98;2.65;;;10.80;99.90;;;;;;5051959;28;20044;-71
2021/10/11 08:13:30;;;;;;;18.17;3.55;;;10.80;99.90;;;;;;5034812;28;20047;-71
2021/10/11 08:15:56;;;;;;;16.60;3.67;;;10.90;99.90;;;;;;5050280;28;20076;-71
2021/10/11 08:18:23;;;;;;;14.27;3.63;;;10.90;99.90;;;;;;5050227;28;20040;-71
2021/10/11 08:20:50;;;;;;;17.10;4.50;;;11.00;99.90;;;;;;5047257;28;20047;-71
2021/10/11 08:23:16;;;;;;;11.55;2.90;;;11.00;99.90;;;;;;5049944;28;20051;-71
2021/10/11 08:25:42;;;;;;;17.92;3.55;;;11.10;99.90;;;;;;5048085;28;20041;-72
2021/10/11 08:28:08;;;;;;;16.65;3.92;;;11.20;99.90;;;;;;5050087;28;20068;-72
2021/10/11 08:30:34;;;;;;;16.88;3.95;;;11.20;99.90;;;;;;5051344;28;20048;-72
2021/10/11 08:33:00;;;;;;;19.60;3.85;;;11.20;99.90;;;;;;5049902;28;20044;-72
2021/10/11 08:35:25;;;;;;;16.45;3.63;;;11.30;99.90;;;;;;5056253;28;20046;-72
2021/10/11 08:37:51;;;;;;;17.38;4.45;;;11.30;99.90;;;;;;5046907;28;20094;-72
2021/10/11 08:40:19;;;;;;;13.70;3.50;;;11.40;99.90;;;;;;5047219;28;20040;-72
2021/10/11 08:42:45;;;;;;;15.60;4.05;;;11.40;99.90;;;;;;5048061;28;20037;-72
2021/10/11 08:45:12;;;;;;;18.45;4.10;;;11.50;99.90;;;;;;5033344;28;20094;-72
2021/10/11 08:47:38;;;;;;;12.02;3.30;;;11.60;99.90;;;;;;5048384;28;20040;-72
2021/10/11 08:50:04;;;;;;;18.20;4.50;;;11.70;99.90;;;;;;5050548;28;20507;-72
2021/10/11 08:52:31;;;;;;;16.25;4.07;;;11.70;99.90;;;;;;5025308;28;20044;-71
2021/10/11 08:54:59;;;;;;;22.63;6.85;;;11.80;99.90;;;;;;5034775;28;20044;-70
2021/10/11 08:57:27;;;;;;;17.08;5.70;;;11.90;99.90;;;;;;5032106;28;20043;-70
2021/10/11 09:00:05;;;;;;;17.45;6.32;;;12.00;99.90;;;;;;5033231;28;20041;-70
2021/10/11 09:02:30;;;;;;;15.43;5.90;;;12.00;99.90;;;;;;5054545;28;20099;-70
2021/10/11 09:04:56;;;;;;;16.80;9.32;;;12.10;99.90;;;;;;5029416;28;20049;-71
2021/10/11 09:07:30;;;;;;;21.25;9.48;;;12.20;99.90;;;;;;5047263;28;20048;-70
2021/10/11 09:09:58;;;;;;;23.38;10.60;;;12.20;99.90;;;;;;5032161;28;20783;-70
2021/10/11 09:12:30;;;;;;;21.13;9.50;;;12.30;99.90;;;;;;5048270;28;20128;-70
2021/10/11 09:15:06;;;;;;;18.15;7.60;;;12.40;99.90;;;;;;5068762;28;20778;-70
2021/10/11 09:17:41;;;;;;;13.80;4.68;;;12.50;99.90;;;;;;5031713;28;20040;-70
2021/10/11 09:20:15;;;;;;;12.50;3.08;;;12.70;99.90;;;;;;5034526;28;20044;-73
2021/10/11 09:22:44;;;;;;;14.20;2.97;;;12.80;99.90;;;;;;5032585;28;20036;-71
2021/10/11 09:25:11;;;;;;;7.97;2.28;;;12.90;99.90;;;;;;5049073;28;20052;-71
2021/10/11 09:27:52;;;;;;;14.60;2.80;;;13.00;99.90;;;;;;5031907;28;20043;-72
2021/10/11 09:30:39;;;;;;;14.45;3.60;;;13.10;99.90;;;;;;5048201;28;20036;-71
2021/10/11 09:33:16;;;;;;;13.13;2.67;;;13.10;99.90;;;;;;5048481;28;20041;-72
2021/10/11 09:35:44;;;;;;;14.63;2.03;;;13.10;99.90;;;;;;5046979;28;20133;-71
2021/10/11 09:38:23;;;;;;;10.27;1.75;;;13.20;99.90;;;;;;5030534;28;20053;-71
2021/10/11 09:40:51;;;;;;;13.27;2.25;;;13.20;99.90;;;;;;5031669;28;20051;-71
2021/10/11 09:43:19;;;;;;;12.23;2.00;;;13.30;99.90;;;;;;5049394;28;20098;-71
2021/10/11 09:45:45;;;;;;;13.13;1.95;;;13.30;99.90;;;;;;5050052;28;20657;-71
2021/10/11 09:48:12;;;;;;;9.43;1.70;;;13.30;99.90;;;;;;5046344;28;20048;-71
2021/10/11 09:50:39;;;;;;;17.90;2.22;;;13.40;99.90;;;;;;5032357;28;20121;-71
2021/10/11 09:53:06;;;;;;;8.52;1.88;;;13.40;99.90;;;;;;5047625;28;20127;-71
2021/10/11 09:55:37;;;;;;;9.98;2.25;;;13.40;99.90;;;;;;5049421;28;20127;-71
2021/10/11 09:58:07;;;;;;;11.77;1.63;;;13.50;99.90;;;;;;5031747;28;20099;-71
2021/10/11 10:00:33;;;;;;;11.90;2.17;;;13.50;99.90;;;;;;5024506;28;20040;-71
2021/10/11 10:02:58;;;;;;;12.98;1.90;;;13.60;99.90;;;;;;5051644;28;20504;-75
2021/10/11 10:05:33;;;;;;;8.63;1.67;;;13.60;99.90;;;;;;5025245;28;20402;-71
2021/10/11 10:08:04;;;;;;;10.27;1.70;;;13.80;99.90;;;;;;5032351;28;20048;-70
2021/10/11 10:10:33;;;;;;;11.95;2.17;;;13.90;99.90;;;;;;5057811;28;20452;-71
2021/10/11 10:12:59;;;;;;;12.20;1.80;;;14.00;99.90;;;;;;5049459;28;20663;-70
2021/10/11 10:15:26;;;;;;;6.13;1.15;;;14.10;99.90;;;;;;5035580;28;21003;-71
2021/10/11 10:18:00;;;;;;;12.00;2.47;;;14.20;99.90;;;;;;5053550;28;20664;-71
2021/10/11 10:20:26;;;;;;;10.38;1.50;;;14.30;99.90;;;;;;5021359;28;20061;-70
2021/10/11 10:22:52;;;;;;;11.82;1.50;;;14.30;99.90;;;;;;5042571;28;20498;-70
2021/10/11 10:25:19;;;;;;;9.30;1.20;;;14.40;99.90;;;;;;5031762;28;20087;-71
2021/10/11 10:27:47;;;;;;;8.20;1.40;;;14.40;99.90;;;;;;5045132;28;20546;-70
2021/10/11 10:30:21;;;;;;;7.70;1.48;;;14.40;99.90;;;;;;5035259;28;20052;-70
2021/10/11 10:32:57;;;;;;;9.30;1.88;;;14.50;99.90;;;;;;5049630;28;20143;-71
2021/10/11 10:35:24;;;;;;;11.00;1.80;;;14.70;99.90;;;;;;5054440;28;20832;-71
2021/10/11 10:37:50;;;;;;;10.55;1.73;;;14.80;99.90;;;;;;5047566;28;20495;-71
2021/10/11 10:40:18;;;;;;;5.75;1.05;;;14.90;99.90;;;;;;5050111;28;20041;-72
2021/10/11 10:42:44;;;;;;;12.38;1.35;;;15.00;99.90;;;;;;5048956;28;20546;-71
2021/10/11 10:45:19;;;;;;;7.90;1.20;;;15.00;99.90;;;;;;5039177;28;20063;-71
2021/10/11 10:47:47;;;;;;;8.45;1.50;;;15.00;99.90;;;;;;5044696;28;20526;-71
2021/10/11 10:50:20;;;;;;;10.68;1.55;;;14.90;99.90;;;;;;5055496;28;20123;-71
2021/10/11 10:52:52;;;;;;;6.65;1.75;;;14.70;99.90;;;;;;5031242;28;20131;-72
2021/10/11 10:55:18;;;;;;;9.88;2.08;;;14.60;99.90;;;;;;5047895;28;20067;-72
2021/10/11 10:57:44;;;;;;;5.35;1.63;;;14.40;99.90;;;;;;5048709;28;20086;-72
2021/10/11 11:00:16;;;;;;;5.82;0.95;;;14.30;99.90;;;;;;5066287;28;20048;-71
2021/10/11 11:02:52;;;;;;;9.20;1.65;;;14.20;99.90;;;;;;5026628;28;20086;-72
2021/10/11 11:05:25;;;;;;;11.52;1.50;;;14.10;99.90;;;;;;5032739;28;20552;-72
2021/10/11 11:07:52;;;;;;;6.47;1.02;;;14.00;99.90;;;;;;5057121;28;20052;-72
2021/10/11 11:10:24;;;;;;;6.28;0.88;;;13.90;99.90;;;;;;5039886;28;20048;-72
2021/10/11 11:12:56;;;;;;;7.00;0.95;;;13.90;99.90;;;;;;5061226;28;20036;-71
2021/10/11 11:15:35;;;;;;;9.57;1.58;;;13.90;99.90;;;;;;5054723;28;20477;-72
2021/10/11 11:18:07;;;;;;;6.15;1.02;;;13.90;99.90;;;;;;5031695;28;20039;-71
2021/10/11 11:20:36;;;;;;;6.65;1.40;;;13.90;99.90;;;;;;5050424;28;20067;-71
2021/10/11 11:23:07;;;;;;;8.25;1.45;;;13.90;99.90;;;;;;5034932;28;20052;-71
2021/10/11 11:25:35;;;;;;;7.80;1.27;;;13.90;99.90;;;;;;5050449;28;20072;-71
2021/10/11 11:28:07;;;;;;;5.50;1.10;;;13.90;99.90;;;;;;5068804;28;20055;-71
2021/10/11 11:30:33;;;;;;;9.15;1.40;;;14.00;99.90;;;;;;5040154;28;20044;-71
2021/10/11 11:33:04;;;;;;;9.95;1.58;;;14.00;99.90;;;;;;5043578;28;20041;-71
2021/10/11 11:35:35;;;;;;;9.80;1.50;;;14.10;99.90;;;;;;5052182;28;20047;-71
2021/10/11 11:38:03;;;;;;;6.80;1.13;;;14.30;99.90;;;;;;5052711;28;20044;-71
2021/10/11 11:40:33;;;;;;;12.30;1.85;;;14.40;99.90;;;;;;5052537;28;20432;-71
2021/10/11 11:43:00;;;;;;;8.00;1.55;;;14.50;99.90;;;;;;5052389;28;20045;-71
2021/10/11 11:45:50;;;;;;;13.43;1.70;;;14.60;99.90;;;;;;5052143;28;20110;-71
2021/10/11 11:48:25;;;;;;;9.93;1.58;;;14.70;99.90;;;;;;5035522;28;20147;-71
2021/10/11 11:51:04;;;;;;;7.13;1.65;;;14.80;99.90;;;;;;5051048;28;20050;-71
2021/10/11 11:53:33;;;;;;;6.20;1.23;;;14.90;99.90;;;;;;5056171;28;20054;-71
2021/10/11 11:56:00;;;;;;;9.63;1.25;;;15.00;99.90;;;;;;5042615;28;20074;-71
2021/10/11 11:58:35;;;;;;;8.80;1.30;;;15.10;99.90;;;;;;5057945;28;20097;-71
2021/10/11 12:01:05;;;;;;;7.43;1.13;;;15.00;99.90;;;;;;5048152;28;20054;-70
2021/10/11 12:03:32;;;;;;;7.43;1.10;;;15.00;99.90;;;;;;5058612;28;20118;-71
2021/10/11 12:06:00;;;;;;;7.38;1.60;;;14.80;99.90;;;;;;5061591;28;20048;-70
2021/10/11 12:08:26;;;;;;;9.55;1.38;;;14.60;99.90;;;;;;5058024;28;20048;-71
2021/10/11 12:11:02;;;;;;;17.77;4.63;;;14.50;99.90;;;;;;5055355;28;20059;-71
2021/10/11 12:13:37;;;;;;;9.80;2.78;;;14.50;99.90;;;;;;5041802;28;20429;-71
2021/10/11 12:16:08;;;;;;;9.85;2.55;;;14.40;99.90;;;;;;5024863;28;20810;-71
2021/10/11 12:18:43;;;;;;;5.55;1.63;;;14.40;99.90;;;;;;5051770;28;20044;-71
2021/10/11 12:21:26;;;;;;;7.93;1.42;;;14.50;99.90;;;;;;5034997;28;20045;-70
2021/10/11 12:23:55;;;;;;;9.05;1.20;;;14.50;99.90;;;;;;5052182;28;20041;-71
2021/10/11 12:26:23;;;;;;;8.23;1.10;;;14.50;99.90;;;;;;5051440;28;20060;-71
2021/10/11 12:28:51;;;;;;;7.50;1.08;;;14.50;99.90;;;;;;5053777;28;20064;-70
2021/10/11 12:31:26;;;;;;;8.50;1.15;;;14.50;99.90;;;;;;5041548;28;20053;-70
2021/10/11 12:34:00;;;;;;;7.38;1.30;;;14.60;99.90;;;;;;5051680;28;20052;-69
2021/10/11 12:36:27;;;;;;;8.48;1.35;;;14.70;99.90;;;;;;5035200;28;20056;-70
2021/10/11 12:38:53;;;;;;;8.65;1.25;;;14.80;99.90;;;;;;5052316;28;20054;-70
2021/10/11 12:41:18;;;;;;;9.32;1.67;;;15.00;99.90;;;;;;5051729;28;20048;-70
2021/10/11 12:44:15;;;;;;;5.70;1.00;;;15.10;99.90;;;;;;5052976;28;20039;-70